createdAt,value
2022-12-08T00:01:35.660Z,59.91
2022-12-08T00:05:01.817Z,59.62
2022-12-08T00:08:25.503Z,59.73
2022-12-08T00:11:31.192Z,60.02
2022-12-08T00:14:40.615Z,59.77
2022-12-08T00:17:46.023Z,60.35
2022-12-08T00:20:58.684Z,60.45
2022-12-08T00:24:07.045Z,60.06
2022-12-08T00:27:16.685Z,60.19
2022-12-08T00:30:22.374Z,60.28
2022-12-08T00:33:31.468Z,60.71
2022-12-08T00:36:38.091Z,60.49
2022-12-08T00:39:48.358Z,60.60
2022-12-08T00:42:53.915Z,60.27
2022-12-08T00:46:00.264Z,60.16
2022-12-08T00:49:06.883Z,60.38
2022-12-08T00:52:13.523Z,60.64
2022-12-08T00:55:21.558Z,60.64
2022-12-08T00:58:27.905Z,60.50
2022-12-08T01:01:34.033Z,61.13
2022-12-08T01:04:41.996Z,61.40
2022-12-08T01:07:49.155Z,61.02
2022-12-08T01:10:57.987Z,61.09
2022-12-08T01:14:03.790Z,61.04
2022-12-08T01:17:11.433Z,60.87
2022-12-08T01:20:17.091Z,60.98
2022-12-08T01:23:23.996Z,60.76
2022-12-08T01:26:32.121Z,61.16
2022-12-08T01:29:38.650Z,61.24
2022-12-08T01:32:44.161Z,61.39
2022-12-08T01:35:51.656Z,61.16
2022-12-08T01:39:00.561Z,60.85
2022-12-08T01:42:10.010Z,61.03
2022-12-08T01:45:25.333Z,61.25
2022-12-08T01:48:31.797Z,61.84
2022-12-08T01:51:48.684Z,61.52
2022-12-08T01:55:00.951Z,61.95
2022-12-08T01:58:19.706Z,61.40
2022-12-08T02:01:26.744Z,61.61
2022-12-08T02:04:32.396Z,61.63
2022-12-08T02:07:39.834Z,61.87
2022-12-08T02:10:47.093Z,62.12
2022-12-08T02:13:58.369Z,61.47
2022-12-08T02:17:23.834Z,61.40
2022-12-08T02:20:59.219Z,60.80
2022-12-08T02:24:23.433Z,60.87
2022-12-08T02:27:49.560Z,60.76
2022-12-08T02:31:20.652Z,60.92
2022-12-08T02:34:45.780Z,60.82
2022-12-08T02:38:06.559Z,60.63
2022-12-08T02:41:33.333Z,60.87
2022-12-08T02:44:48.818Z,61.22
2022-12-08T02:47:56.579Z,61.27
2022-12-08T02:51:04.644Z,61.71
2022-12-08T02:54:12.025Z,61.24
2022-12-08T02:57:41.200Z,61.43
2022-12-08T03:01:16.045Z,61.28
2022-12-08T03:04:41.188Z,61.12
2022-12-08T03:08:06.648Z,61.02
2022-12-08T03:11:23.141Z,61.23
2022-12-08T03:14:32.373Z,61.88
2022-12-08T03:17:44.231Z,61.48
2022-12-08T03:20:53.883Z,61.77
2022-12-08T03:24:08.823Z,61.23
2022-12-08T03:27:20.857Z,61.03
2022-12-08T03:30:26.448Z,60.93
2022-12-08T03:33:43.440Z,60.81
2022-12-08T03:36:49.287Z,60.79
2022-12-08T03:39:58.685Z,60.56
2022-12-08T03:43:04.546Z,60.73
2022-12-08T03:46:10.979Z,60.20
2022-12-08T03:49:16.625Z,60.01
2022-12-08T03:52:23.025Z,59.92
2022-12-08T03:55:31.103Z,59.86
2022-12-08T03:58:37.756Z,60.18
2022-12-08T04:01:43.219Z,59.79
2022-12-08T04:04:49.496Z,59.57
2022-12-08T04:08:01.347Z,59.12
2022-12-08T04:11:10.924Z,59.15
2022-12-08T04:14:16.639Z,59.30
2022-12-08T04:17:23.119Z,59.57
2022-12-08T04:20:28.621Z,59.54
2022-12-08T04:23:34.865Z,59.55
2022-12-08T04:26:42.952Z,60.15
2022-12-08T04:29:49.198Z,60.23
2022-12-08T04:32:57.093Z,60.28
2022-12-08T04:36:03.366Z,60.06
2022-12-08T04:39:22.595Z,60.13
2022-12-08T04:42:31.595Z,60.51
2022-12-08T04:45:37.289Z,60.35
2022-12-08T04:48:44.659Z,60.49
2022-12-08T04:51:50.165Z,59.93
2022-12-08T04:54:58.996Z,60.06
2022-12-08T04:58:07.310Z,60.14
2022-12-08T05:01:14.428Z,60.39
2022-12-08T05:04:20.051Z,60.21
2022-12-08T05:07:27.438Z,60.19
2022-12-08T05:10:33.052Z,60.06
2022-12-08T05:13:42.133Z,60.22
2022-12-08T05:16:48.673Z,60.76
2022-12-08T05:19:55.072Z,60.48
2022-12-08T05:23:00.654Z,60.33
2022-12-08T05:26:07.379Z,60.62
2022-12-08T05:29:15.464Z,60.16
2022-12-08T05:32:21.877Z,60.10
2022-12-08T05:35:27.329Z,60.04
2022-12-08T05:38:33.758Z,59.64
2022-12-08T05:41:39.209Z,60.08
2022-12-08T05:44:48.183Z,60.14
2022-12-08T05:47:55.589Z,59.93
2022-12-08T05:51:01.898Z,60.05
2022-12-08T05:54:07.641Z,60.09
2022-12-08T05:57:14.034Z,60.30
2022-12-08T06:00:24.827Z,60.79
2022-12-08T06:03:31.251Z,61.02
2022-12-08T06:06:38.993Z,60.48
2022-12-08T06:09:45.274Z,60.47
2022-12-08T06:12:50.781Z,60.71
2022-12-08T06:15:59.788Z,60.73
2022-12-08T06:19:05.212Z,60.64
2022-12-08T06:22:11.568Z,61.01
2022-12-08T06:25:17.014Z,60.71
2022-12-08T06:28:23.506Z,60.40
2022-12-08T06:31:31.666Z,60.38
2022-12-08T06:34:38.274Z,60.37
2022-12-08T06:37:43.809Z,60.51
2022-12-08T06:40:57.782Z,60.47
2022-12-08T06:44:03.303Z,60.15
2022-12-08T06:47:12.231Z,59.87
2022-12-08T06:50:18.009Z,60.15
2022-12-08T06:53:24.300Z,59.90
2022-12-08T06:56:30.315Z,59.01
2022-12-08T06:59:36.699Z,59.21
2022-12-08T07:02:45.906Z,59.17
2022-12-08T07:05:52.582Z,59.23
2022-12-08T07:08:58.128Z,58.94
2022-12-08T07:12:04.473Z,58.96
2022-12-08T07:15:12.395Z,58.90
2022-12-08T07:18:23.626Z,58.73
2022-12-08T07:21:29.166Z,58.88
2022-12-08T07:24:35.498Z,58.72
2022-12-08T07:27:40.974Z,58.84
2022-12-08T07:30:47.339Z,58.52
2022-12-08T07:33:57.167Z,58.70
2022-12-08T07:37:03.608Z,59.01
2022-12-08T07:40:12.856Z,58.87
2022-12-08T07:43:19.264Z,59.01
2022-12-08T07:46:27.495Z,59.08
2022-12-08T07:49:36.734Z,58.78
2022-12-08T07:52:42.219Z,58.42
2022-12-08T07:55:48.448Z,59.19
2022-12-08T07:58:54.137Z,59.03
2022-12-08T08:02:22.769Z,58.80
2022-12-08T08:05:28.673Z,58.66
2022-12-08T08:08:36.314Z,57.91
2022-12-08T08:11:41.791Z,58.47
2022-12-08T08:14:48.105Z,58.35
2022-12-08T08:17:54.287Z,58.27
2022-12-08T08:21:22.256Z,58.21
2022-12-08T08:24:28.766Z,58.33
2022-12-08T08:27:35.148Z,58.40
2022-12-08T08:30:40.750Z,58.27
2022-12-08T08:33:48.852Z,58.16
2022-12-08T08:36:57.016Z,57.45
2022-12-08T08:40:03.936Z,57.34
2022-12-08T08:43:34.299Z,56.73
2022-12-08T08:46:44.387Z,56.43
2022-12-08T08:49:49.994Z,55.56
2022-12-08T08:52:59.163Z,55.86
2022-12-08T08:56:05.256Z,55.79
2022-12-08T08:59:12.604Z,55.04
2022-12-08T09:02:22.145Z,55.15
2022-12-08T09:05:28.452Z,55.55
2022-12-08T09:08:36.482Z,54.97
2022-12-08T09:11:42.962Z,54.98
2022-12-08T09:14:48.651Z,55.44
2022-12-08T09:17:55.023Z,54.27
2022-12-08T09:21:06.411Z,54.94
2022-12-08T09:24:16.045Z,54.97
2022-12-08T09:27:21.853Z,54.23
2022-12-08T09:30:28.419Z,54.38
2022-12-08T09:33:34.211Z,54.44
2022-12-08T09:36:40.526Z,53.58
2022-12-08T09:39:49.483Z,53.14
2022-12-08T09:43:09.297Z,53.36
2022-12-08T09:46:21.099Z,53.48
2022-12-08T09:49:46.001Z,53.55
2022-12-08T09:53:05.036Z,54.18
2022-12-08T09:56:22.603Z,52.87
2022-12-08T09:59:34.893Z,52.89
2022-12-08T10:02:41.167Z,52.19
2022-12-08T10:05:58.890Z,52.75
2022-12-08T10:09:31.635Z,53.20
2022-12-08T10:12:54.033Z,52.70
2022-12-08T10:16:25.391Z,52.87
2022-12-08T10:19:38.114Z,52.99
2022-12-08T10:22:45.265Z,52.91
2022-12-08T10:25:56.941Z,52.41
2022-12-08T10:29:07.739Z,52.51
2022-12-08T10:32:22.947Z,52.88
2022-12-08T10:35:48.843Z,52.42
2022-12-08T10:38:54.414Z,52.65
2022-12-08T10:42:10.523Z,52.85
2022-12-08T10:45:29.547Z,52.39
2022-12-08T10:48:37.036Z,52.61
2022-12-08T10:51:45.296Z,52.54
2022-12-08T10:54:56.726Z,52.75
2022-12-08T10:58:02.290Z,52.53
2022-12-08T11:01:17.813Z,53.10
2022-12-08T11:04:38.375Z,52.94
2022-12-08T11:07:51.082Z,52.89
2022-12-08T11:10:56.988Z,53.30
2022-12-08T11:14:12.027Z,53.83
2022-12-08T11:17:29.790Z,54.35
2022-12-08T11:20:43.909Z,54.59
2022-12-08T11:23:53.316Z,54.35
2022-12-08T11:27:06.573Z,55.19
2022-12-08T11:30:21.484Z,55.38
2022-12-08T11:33:32.592Z,55.30
2022-12-08T11:36:41.109Z,56.12
2022-12-08T11:39:54.486Z,56.11
2022-12-08T11:43:17.511Z,55.80
2022-12-08T11:46:30.214Z,56.64
2022-12-08T11:49:44.373Z,56.82
2022-12-08T11:52:54.689Z,56.33
2022-12-08T11:56:09.588Z,56.95
2022-12-08T11:59:31.775Z,57.07
2022-12-08T12:02:49.165Z,57.19
2022-12-08T12:10:29.117Z,57.52
2022-12-08T12:14:05.432Z,57.65
2022-12-08T12:17:39.315Z,58.27
2022-12-08T12:21:00.078Z,58.67
2022-12-08T12:24:26.748Z,58.05
2022-12-08T12:27:43.830Z,58.60
2022-12-08T12:31:02.082Z,58.31
2022-12-08T12:34:19.312Z,58.67
2022-12-08T12:37:30.517Z,58.97
2022-12-08T12:40:45.457Z,58.54
2022-12-08T12:44:28.277Z,57.79
2022-12-08T12:47:56.688Z,57.23
2022-12-08T12:51:02.729Z,57.99
2022-12-08T12:54:25.960Z,57.81
2022-12-08T12:57:42.370Z,57.78
2022-12-08T13:00:49.920Z,58.77
2022-12-08T13:04:10.817Z,58.64
2022-12-08T13:07:25.641Z,59.04
2022-12-08T13:10:37.424Z,59.70
2022-12-08T13:14:03.371Z,59.28
2022-12-08T13:17:19.473Z,59.66
2022-12-08T13:20:29.118Z,60.35
2022-12-08T13:24:17.808Z,59.79
2022-12-08T13:27:37.882Z,59.71
2022-12-08T13:30:50.883Z,59.94
2022-12-08T13:38:48.896Z,59.74
2022-12-08T13:42:06.699Z,60.32
2022-12-08T13:45:59.210Z,59.85
2022-12-08T13:59:48.585Z,59.29
2022-12-08T14:03:02.430Z,59.37
2022-12-08T14:06:17.724Z,59.09
2022-12-08T14:09:28.214Z,59.18
2022-12-08T14:12:35.114Z,59.10
2022-12-08T14:15:43.240Z,59.15
2022-12-08T14:18:48.827Z,59.85
2022-12-08T14:22:01.962Z,59.52
2022-12-08T14:25:10.803Z,59.50
2022-12-08T14:28:17.179Z,59.52
2022-12-08T14:31:26.618Z,59.40
2022-12-08T14:34:39.786Z,59.54
2022-12-08T14:37:52.104Z,59.47
2022-12-08T14:41:08.879Z,59.39
2022-12-08T14:44:27.340Z,59.76
2022-12-08T14:47:36.359Z,60.28
2022-12-08T14:51:02.581Z,60.37
2022-12-08T14:54:18.148Z,60.51
2022-12-08T14:57:24.335Z,60.76
2022-12-08T15:00:32.028Z,60.86
2022-12-08T15:03:40.050Z,60.89
2022-12-08T15:06:56.407Z,61.07
2022-12-08T15:10:32.037Z,61.25
2022-12-08T15:13:38.345Z,61.55
2022-12-08T15:16:47.221Z,61.96
2022-12-08T15:19:59.291Z,62.01
2022-12-08T15:23:06.927Z,61.51
2022-12-08T15:26:25.268Z,61.29
2022-12-08T15:29:33.094Z,61.19
2022-12-08T15:32:39.400Z,61.31
2022-12-08T15:35:45.035Z,61.28
2022-12-08T15:38:51.435Z,61.45
2022-12-08T15:41:59.603Z,61.22
2022-12-08T15:45:06.571Z,61.15
2022-12-08T15:48:21.639Z,61.21
2022-12-08T15:51:27.932Z,63.46
2022-12-08T15:54:33.497Z,61.62
2022-12-08T15:58:31.216Z,61.29
2022-12-08T16:01:08.505Z,61.21
2022-12-08T16:05:06.385Z,61.26
2022-12-08T16:07:45.841Z,61.11
2022-12-08T16:11:34.475Z,61.51
2022-12-08T16:15:23.014Z,61.38
2022-12-08T16:17:45.909Z,61.58
2022-12-08T16:21:09.727Z,61.96
2022-12-08T16:24:18.583Z,62.08
2022-12-08T16:30:59.716Z,62.70
2022-12-08T16:34:05.447Z,62.95
2022-12-08T16:37:18.354Z,63.18
2022-12-08T16:40:24.221Z,63.39
2022-12-08T16:43:27.914Z,63.36
2022-12-08T16:46:37.654Z,62.68
2022-12-08T16:49:43.945Z,63.02
2022-12-08T16:52:53.048Z,62.87
2022-12-08T16:55:59.527Z,62.49
2022-12-08T16:59:05.594Z,62.38
2022-12-08T17:02:16.540Z,62.56
2022-12-08T17:05:25.140Z,61.95
2022-12-08T17:08:31.562Z,61.69
2022-12-08T17:11:42.973Z,61.98
2022-12-08T17:14:50.168Z,61.64
2022-12-08T17:17:59.708Z,61.60
2022-12-08T17:21:06.255Z,62.49
2022-12-08T17:24:14.604Z,62.03
2022-12-08T17:27:22.405Z,61.80
2022-12-08T17:30:27.938Z,61.67
2022-12-08T17:33:37.027Z,62.01
2022-12-08T17:36:43.048Z,62.29
2022-12-08T17:39:49.608Z,62.36
2022-12-08T17:42:55.114Z,62.08
2022-12-08T17:46:07.283Z,62.21
2022-12-08T17:49:21.832Z,62.46
2022-12-08T17:52:28.169Z,62.55
2022-12-08T17:55:33.643Z,63.25
2022-12-08T17:58:40.164Z,63.01
2022-12-08T18:01:46.235Z,62.92
2022-12-08T18:04:55.052Z,63.00
2022-12-08T18:08:01.453Z,62.77
2022-12-08T18:11:13.983Z,62.39
2022-12-08T18:14:20.155Z,62.62
2022-12-08T18:17:26.619Z,62.67
2022-12-08T18:20:35.018Z,62.53
2022-12-08T18:23:44.842Z,62.58
2022-12-08T18:26:52.427Z,62.79
2022-12-08T18:29:58.827Z,62.88
2022-12-08T18:33:07.237Z,62.90
2022-12-08T18:36:20.972Z,63.03
2022-12-08T18:39:30.226Z,63.16
2022-12-08T18:42:36.488Z,62.41
2022-12-08T18:45:42.560Z,61.85
2022-12-08T18:48:53.159Z,61.83
2022-12-08T18:52:01.124Z,61.34
2022-12-08T18:55:08.863Z,61.83
2022-12-08T18:58:14.541Z,61.72
2022-12-08T19:01:21.777Z,61.75
2022-12-08T19:04:29.661Z,61.99
2022-12-08T19:07:39.921Z,61.73
2022-12-08T19:10:45.671Z,61.47
2022-12-08T19:13:52.743Z,61.15
2022-12-08T19:16:58.540Z,60.93
2022-12-08T19:20:05.294Z,61.25
2022-12-08T19:23:15.309Z,61.04
2022-12-08T19:26:22.673Z,60.85
2022-12-08T19:29:28.139Z,61.17
2022-12-08T19:32:34.836Z,61.16
2022-12-08T19:35:40.429Z,61.72
2022-12-08T19:39:02.922Z,61.76
2022-12-08T19:42:30.341Z,62.10
2022-12-08T19:45:39.265Z,61.46
2022-12-08T19:48:44.739Z,61.18
2022-12-08T19:51:53.482Z,61.48
2022-12-08T19:55:01.604Z,61.66
2022-12-08T19:58:10.055Z,60.97
2022-12-08T20:01:17.129Z,60.80
2022-12-08T20:04:24.178Z,61.15
2022-12-08T20:07:29.702Z,61.01
2022-12-08T20:10:45.567Z,60.54
2022-12-08T20:13:51.246Z,60.81
2022-12-08T20:16:57.787Z,60.77
2022-12-08T20:20:07.071Z,60.78
2022-12-08T20:23:16.370Z,60.97
2022-12-08T20:26:26.089Z,60.87
2022-12-08T20:29:32.400Z,61.13
2022-12-08T20:32:38.094Z,60.67
2022-12-08T20:35:45.902Z,61.15
2022-12-08T20:38:54.605Z,61.30
2022-12-08T20:42:04.787Z,61.03
2022-12-08T20:45:11.787Z,60.64
2022-12-08T20:48:19.627Z,60.47
2022-12-08T20:51:31.418Z,60.52
2022-12-08T20:54:40.045Z,60.46
2022-12-08T20:57:48.291Z,60.34
2022-12-08T21:00:56.056Z,60.53
2022-12-08T21:04:02.120Z,60.55
2022-12-08T21:07:09.241Z,61.20
2022-12-08T21:10:14.996Z,60.61
2022-12-08T21:13:24.180Z,61.10
2022-12-08T21:16:29.856Z,61.29
2022-12-08T21:19:38.836Z,61.16
2022-12-08T21:22:44.699Z,60.72
2022-12-08T21:25:51.195Z,60.36
2022-12-08T21:29:01.189Z,60.39
2022-12-08T21:32:08.012Z,60.20
2022-12-08T21:35:14.586Z,60.07
2022-12-08T21:38:21.251Z,60.29
2022-12-08T21:41:39.866Z,59.92
2022-12-08T21:44:48.975Z,60.14
2022-12-08T21:47:54.948Z,60.35
2022-12-08T21:51:07.328Z,60.33
2022-12-08T21:54:18.590Z,60.38
2022-12-08T21:57:26.014Z,60.31
2022-12-08T22:00:34.624Z,60.81
2022-12-08T22:03:43.044Z,60.96
2022-12-08T22:06:49.077Z,60.68
2022-12-08T22:09:55.801Z,61.55
2022-12-08T22:13:01.750Z,61.84
2022-12-08T22:16:16.971Z,62.12
2022-12-08T22:19:24.763Z,62.37
2022-12-08T22:22:31.379Z,61.77
2022-12-08T22:25:36.989Z,61.95
2022-12-08T22:28:45.690Z,61.56
2022-12-08T22:31:54.076Z,60.76
2022-12-08T22:35:00.799Z,60.48
2022-12-08T22:38:06.362Z,60.51
2022-12-08T22:41:13.474Z,60.49
2022-12-08T22:44:19.035Z,60.05
2022-12-08T22:47:28.086Z,59.87
2022-12-08T22:50:33.583Z,60.80
2022-12-08T22:53:40.703Z,61.18
2022-12-08T22:56:46.314Z,61.23
2022-12-08T22:59:52.727Z,60.90
2022-12-08T23:03:00.878Z,60.54
2022-12-08T23:06:15.725Z,60.27
2022-12-08T23:09:21.399Z,59.84
2022-12-08T23:12:27.821Z,59.37
2022-12-08T23:15:33.539Z,59.11
2022-12-08T23:18:45.917Z,59.00
2022-12-08T23:21:51.673Z,59.61
2022-12-08T23:24:58.219Z,59.62
2022-12-08T23:28:03.832Z,59.71
2022-12-08T23:31:11.139Z,60.41
2022-12-08T23:34:19.498Z,59.90
2022-12-08T23:37:25.951Z,60.27
2022-12-08T23:40:31.492Z,60.25
2022-12-08T23:43:38.736Z,59.82
2022-12-08T23:46:44.373Z,60.52
2022-12-08T23:49:53.465Z,59.80
2022-12-08T23:52:58.977Z,60.20
2022-12-08T23:56:09.595Z,60.59
2022-12-08T23:59:15.420Z,60.47
